Time;durP1;ratioP1;P1;durP2;ratioP2;P2;SDS_P1;SDS_P2;PMS_P1;PMS_P2;Temp;Humidity;BMP_temperature;BMP_pressure;BME280_temperature;BME280_humidity;BME280_pressure;Samples;Min_cycle;Max_cycle;Signal;HPM_P1;HPM_P2
2024/03/15 00:01:09;;;;;;;31.60;19.40;;;;;;;4.07;80.10;101445.74;107551;1251;108223;-64
2024/03/15 00:03:38;;;;;;;34.50;20.00;;;;;;;4.01;79.89;101443.05;107594;1251;97813;-63
2024/03/15 00:06:06;;;;;;;27.90;19.00;;;;;;;3.99;80.16;101439.40;107666;1250;98025;-64
2024/03/15 00:08:37;;;;;;;26.40;18.90;;;;;;;4.01;80.36;101436.65;107478;1253;112155;-63
2024/03/15 00:11:05;;;;;;;31.00;20.50;;;;;;;4.02;80.30;101436.23;107573;1253;107144;-63
2024/03/15 00:13:37;;;;;;;31.90;18.60;;;;;;;4.02;80.35;101435.15;107586;1252;108242;-64
2024/03/15 00:16:06;;;;;;;31.20;20.20;;;;;;;4.02;80.32;101436.96;107522;1253;97852;-63
2024/03/15 00:18:36;;;;;;;31.30;19.30;;;;;;;4.02;80.36;101437.50;107663;1252;97762;-64
2024/03/15 00:21:05;;;;;;;32.90;20.50;;;;;;;4.02;80.36;101429.54;107624;1253;110396;-64
2024/03/15 00:23:33;;;;;;;27.60;19.20;;;;;;;4.00;80.41;101431.03;107602;1253;108579;-63
2024/03/15 00:26:02;;;;;;;31.00;19.80;;;;;;;3.98;80.45;101427.20;107585;1252;108300;-62
2024/03/15 00:28:31;;;;;;;31.60;20.10;;;;;;;3.99;80.25;101425.23;107609;1251;97852;-64
2024/03/15 00:31:00;;;;;;;31.40;19.60;;;;;;;3.98;80.27;101430.23;107607;1253;97810;-63
2024/03/15 00:33:28;;;;;;;29.30;19.50;;;;;;;3.99;80.30;101428.90;107491;1252;111951;-64
2024/03/15 00:35:57;;;;;;;30.10;20.00;;;;;;;4.01;80.23;101429.55;107622;1253;107929;-63
2024/03/15 00:38:27;;;;;;;29.70;19.50;;;;;;;4.01;80.53;101426.70;107624;1251;107238;-64
2024/03/15 00:40:56;;;;;;;29.10;19.80;;;;;;;3.99;80.24;101427.15;107556;1251;98307;-63
2024/03/15 00:43:25;;;;;;;29.90;19.30;;;;;;;3.99;80.28;101428.23;107512;1254;97911;-65
2024/03/15 00:45:53;;;;;;;34.50;20.90;;;;;;;4.00;80.37;101426.04;107612;1253;111533;-68
2024/03/15 00:48:22;;;;;;;28.00;19.80;;;;;;;4.01;80.52;101425.27;107587;1251;108497;-63
2024/03/15 00:50:51;;;;;;;34.20;21.30;;;;;;;4.04;80.65;101423.37;107601;1251;108004;-63
2024/03/15 00:53:20;;;;;;;35.80;20.20;;;;;;;4.05;80.60;101420.30;107554;1254;97944;-64
2024/03/15 00:55:49;;;;;;;42.70;20.90;;;;;;;4.04;80.58;101418.19;107590;1251;97724;-63
2024/03/15 00:58:19;;;;;;;31.40;20.80;;;;;;;4.04;80.50;101416.77;107545;1251;112209;-63
2024/03/15 01:00:48;;;;;;;32.70;19.90;;;;;;;4.05;80.62;101417.45;107549;1256;108339;-64
2024/03/15 01:03:18;;;;;;;36.30;20.20;;;;;;;4.06;80.51;101414.58;107565;1252;108683;-65
2024/03/15 01:05:47;;;;;;;31.50;20.20;;;;;;;4.08;80.49;101411.27;107626;1250;97844;-63
2024/03/15 01:08:16;;;;;;;33.30;21.60;;;;;;;4.07;80.37;101410.08;107610;1251;98976;-63
2024/03/15 01:10:46;;;;;;;32.00;20.80;;;;;;;4.07;80.45;101410.45;107604;1250;111467;-63
2024/03/15 01:13:15;;;;;;;28.70;19.70;;;;;;;4.06;80.45;101408.67;107588;1253;108340;-64
2024/03/15 01:15:48;;;;;;;32.60;20.30;;;;;;;4.05;80.13;101405.20;107627;1252;106780;-65
2024/03/15 01:18:16;;;;;;;31.10;20.40;;;;;;;4.04;80.45;101403.64;107627;1251;97833;-63
2024/03/15 01:20:46;;;;;;;30.00;20.20;;;;;;;4.02;80.32;101405.02;107595;1251;98470;-63
2024/03/15 01:23:18;;;;;;;34.30;21.20;;;;;;;3.99;80.37;101401.77;107589;1251;111203;-62
2024/03/15 01:25:47;;;;;;;35.20;21.30;;;;;;;3.99;80.50;101401.08;107613;1251;107301;-63
2024/03/15 01:28:16;;;;;;;27.40;19.60;;;;;;;4.01;80.60;101403.28;107599;1251;107667;-64
2024/03/15 01:30:45;;;;;;;31.10;20.40;;;;;;;3.99;80.59;101403.40;107515;1252;97930;-63
2024/03/15 01:33:14;;;;;;;30.90;20.80;;;;;;;3.97;80.44;101406.68;107547;1253;97740;-64
2024/03/15 01:35:43;;;;;;;34.80;21.70;;;;;;;3.98;80.70;101407.17;107608;1253;111012;-63
2024/03/15 01:38:11;;;;;;;31.70;21.00;;;;;;;4.00;80.83;101403.17;107582;1251;108043;-64
2024/03/15 01:40:40;;;;;;;33.60;22.50;;;;;;;4.01;80.82;101405.77;107558;1251;107931;-63
2024/03/15 01:43:11;;;;;;;36.10;23.20;;;;;;;4.02;80.81;101402.35;107611;1251;97839;-63
2024/03/15 01:45:40;;;;;;;33.50;20.80;;;;;;;4.03;80.85;101404.77;107614;1251;97770;-63
2024/03/15 01:48:11;;;;;;;35.30;22.00;;;;;;;4.02;80.76;101405.16;107623;1251;111439;-63
2024/03/15 01:50:42;;;;;;;34.40;21.90;;;;;;;4.01;80.63;101408.97;107575;1252;107212;-63
2024/03/15 01:53:11;;;;;;;36.10;23.80;;;;;;;3.99;80.80;101407.45;107574;1251;107073;-64
2024/03/15 01:55:39;;;;;;;31.10;21.10;;;;;;;3.99;80.71;101408.53;107629;1251;97849;-63
2024/03/15 01:58:08;;;;;;;34.20;22.30;;;;;;;3.95;80.48;101407.13;107565;1251;99609;-64
2024/03/15 02:00:38;;;;;;;36.00;22.60;;;;;;;3.92;80.63;101408.67;107567;1253;111912;-62
2024/03/15 02:03:08;;;;;;;35.70;23.20;;;;;;;3.89;80.72;101409.35;107586;1253;106987;-63
2024/03/15 02:05:37;;;;;;;34.00;22.00;;;;;;;3.89;80.71;101411.15;107628;1251;107515;-64
2024/03/15 02:08:07;;;;;;;32.20;22.60;;;;;;;3.89;81.00;101413.80;107481;1252;97826;-65
2024/03/15 02:10:36;;;;;;;37.60;22.40;;;;;;;3.90;80.65;101409.70;107581;1255;98361;-64
2024/03/15 02:13:05;;;;;;;30.20;21.60;;;;;;;3.90;80.81;101410.59;107568;1251;112609;-65
2024/03/15 02:15:34;;;;;;;36.30;24.20;;;;;;;3.91;80.85;101409.82;107552;1253;108699;-63
2024/03/15 02:18:03;;;;;;;31.00;21.80;;;;;;;3.91;80.98;101409.61;107571;1253;107514;-64
2024/03/15 02:20:32;;;;;;;33.90;21.70;;;;;;;3.90;80.75;101408.98;107566;1255;97852;-63
2024/03/15 02:23:03;;;;;;;32.70;21.50;;;;;;;3.87;80.64;101412.17;107541;1252;98384;-63
2024/03/15 02:25:31;;;;;;;35.90;22.80;;;;;;;3.85;80.78;101418.13;107598;1253;112531;-61
2024/03/15 02:28:00;;;;;;;37.20;22.40;;;;;;;3.83;80.95;101417.83;107589;1251;107422;-63
2024/03/15 02:30:28;;;;;;;35.90;23.10;;;;;;;3.83;80.72;101413.05;107581;1251;108207;-64
2024/03/15 02:32:58;;;;;;;33.70;23.60;;;;;;;3.81;80.82;101414.59;107586;1252;97705;-62
2024/03/15 02:35:27;;;;;;;36.30;23.90;;;;;;;3.78;80.67;101414.01;107517;1252;97840;-63
2024/03/15 02:38:00;;;;;;;38.90;23.50;;;;;;;3.80;80.98;101417.48;107577;1253;112453;-64
2024/03/15 02:40:28;;;;;;;33.20;23.30;;;;;;;3.81;81.15;101420.58;107637;1251;108167;-63
2024/03/15 02:42:57;;;;;;;35.50;23.40;;;;;;;3.82;81.03;101415.06;107598;1253;107910;-63
2024/03/15 02:45:26;;;;;;;34.90;22.10;;;;;;;3.83;81.32;101419.08;107555;1256;97817;-63
2024/03/15 02:47:54;;;;;;;33.60;22.70;;;;;;;3.81;80.89;101417.07;107605;1253;97798;-63
2024/03/15 02:50:23;;;;;;;32.80;22.00;;;;;;;3.77;80.87;101420.45;107578;1253;111339;-63
2024/03/15 02:52:52;;;;;;;34.10;22.40;;;;;;;3.76;80.82;101422.80;107626;1251;108283;-66
2024/03/15 02:55:21;;;;;;;36.20;22.80;;;;;;;3.75;80.94;101424.98;107566;1256;108208;-62
2024/03/15 02:57:50;;;;;;;37.10;22.90;;;;;;;3.73;80.76;101425.07;107575;1253;97843;-65
2024/03/15 03:00:19;;;;;;;37.50;22.90;;;;;;;3.68;80.64;101425.88;107571;1255;97698;-63
2024/03/15 03:02:47;;;;;;;39.20;23.70;;;;;;;3.61;80.78;101429.55;107611;1251;111312;-63
2024/03/15 03:05:16;;;;;;;40.90;24.20;;;;;;;3.61;80.93;101431.19;107505;1253;108653;-63
2024/03/15 03:07:49;;;;;;;37.10;24.00;;;;;;;3.60;80.82;101431.38;107525;1253;107919;-62
2024/03/15 03:10:19;;;;;;;31.60;22.30;;;;;;;3.59;81.02;101427.52;107592;1253;97874;-64
2024/03/15 03:12:48;;;;;;;35.10;22.60;;;;;;;3.58;80.97;101429.33;107569;1251;97716;-66
2024/03/15 03:15:16;;;;;;;33.20;22.90;;;;;;;3.47;80.87;101430.56;107546;1256;113002;-63
2024/03/15 03:17:45;;;;;;;36.30;24.10;;;;;;;3.31;80.61;101436.68;107579;1253;107849;-63
2024/03/15 03:20:20;;;;;;;36.40;23.10;;;;;;;3.22;80.96;101436.91;107493;1252;108251;-63
2024/03/15 03:22:51;;;;;;;36.70;24.30;;;;;;;3.18;81.01;101439.43;107555;1253;97781;-64
2024/03/15 03:25:20;;;;;;;35.40;23.30;;;;;;;3.13;81.16;101436.95;107585;1252;97838;-63
2024/03/15 03:27:49;;;;;;;31.50;21.80;;;;;;;3.15;81.56;101440.80;107641;1253;112213;-63
2024/03/15 03:30:17;;;;;;;33.30;22.10;;;;;;;3.16;81.62;101443.78;107572;1251;107579;-63
2024/03/15 03:32:46;;;;;;;35.40;23.00;;;;;;;3.17;81.78;101443.88;107586;1252;108463;-63
2024/03/15 03:35:15;;;;;;;30.10;20.80;;;;;;;3.22;81.97;101443.12;107548;1251;97893;-63
2024/03/15 03:37:43;;;;;;;38.10;22.60;;;;;;;3.17;82.18;101444.25;107556;1253;97760;-63
2024/03/15 03:40:15;;;;;;;35.70;22.30;;;;;;;3.04;82.08;101443.06;107560;1252;111126;-63
2024/03/15 03:42:44;;;;;;;32.30;21.30;;;;;;;2.95;82.30;101444.86;107559;1253;107960;-63
2024/03/15 03:45:16;;;;;;;35.70;22.30;;;;;;;2.88;82.58;101446.81;107609;1252;106803;-63
2024/03/15 03:47:49;;;;;;;36.30;22.60;;;;;;;2.84;83.11;101446.63;107580;1251;98044;-63
2024/03/15 03:50:18;;;;;;;34.70;22.10;;;;;;;2.85;82.90;101449.09;107550;1252;97839;-63
2024/03/15 03:52:50;;;;;;;34.40;20.70;;;;;;;2.88;83.02;101448.59;107640;1252;111388;-63
2024/03/15 03:55:19;;;;;;;36.60;22.90;;;;;;;2.87;83.14;101448.41;107630;1253;107629;-64
2024/03/15 03:57:47;;;;;;;35.40;22.60;;;;;;;2.91;83.07;101448.28;107588;1253;108511;-62
2024/03/15 04:00:16;;;;;;;32.20;22.40;;;;;;;2.96;83.43;101450.33;107569;1253;97831;-63
2024/03/15 04:02:47;;;;;;;37.30;23.00;;;;;;;3.00;83.26;101455.30;107578;1251;98462;-63
2024/03/15 04:05:23;;;;;;;36.40;23.30;;;;;;;3.02;83.30;101457.32;107670;1254;111855;-63
2024/03/15 04:07:53;;;;;;;36.00;23.10;;;;;;;3.08;83.18;101457.61;107480;1253;108527;-63
2024/03/15 04:10:23;;;;;;;31.60;21.80;;;;;;;3.13;83.28;101459.30;107549;1253;108781;-63
2024/03/15 04:12:52;;;;;;;33.10;22.20;;;;;;;3.19;83.16;101462.80;107535;1251;98143;-62
2024/03/15 04:15:20;;;;;;;38.10;24.50;;;;;;;3.23;83.15;101460.80;107581;1254;97830;-61
2024/03/15 04:17:57;;;;;;;35.40;22.80;;;;;;;3.28;83.23;101459.86;107554;1253;111257;-62
2024/03/15 04:20:27;;;;;;;37.60;24.60;;;;;;;3.31;82.97;101466.10;107550;1253;107260;-62
2024/03/15 04:22:57;;;;;;;35.10;22.00;;;;;;;3.33;82.92;101465.48;107525;1252;108564;-62
2024/03/15 04:25:26;;;;;;;35.50;23.20;;;;;;;3.34;82.91;101470.75;107473;1252;97822;-63
2024/03/15 04:27:55;;;;;;;36.40;25.00;;;;;;;3.34;82.89;101473.24;107553;1252;98354;-68
2024/03/15 04:30:28;;;;;;;38.60;25.00;;;;;;;3.34;82.62;101478.91;107523;1255;111745;-64
2024/03/15 04:32:57;;;;;;;37.60;25.10;;;;;;;3.36;82.71;101481.11;107593;1253;107942;-65
2024/03/15 04:35:27;;;;;;;36.30;24.10;;;;;;;3.39;82.76;101479.91;107544;1255;107927;-63
2024/03/15 04:37:57;;;;;;;37.70;22.80;;;;;;;3.42;82.59;101483.51;107609;1252;97858;-63
2024/03/15 04:40:28;;;;;;;37.70;24.50;;;;;;;3.42;82.38;101484.39;107599;1253;97792;-63
2024/03/15 04:42:57;;;;;;;35.30;23.20;;;;;;;3.46;82.72;101485.63;107584;1252;112187;-64
2024/03/15 04:45:26;;;;;;;36.70;24.20;;;;;;;3.49;82.69;101486.36;107519;1252;108420;-62
2024/03/15 04:47:56;;;;;;;52.00;25.70;;;;;;;3.51;82.67;101484.32;107511;1253;107663;-64
2024/03/15 04:50:25;;;;;;;39.80;24.70;;;;;;;3.53;82.51;101486.70;107563;1251;97704;-63
2024/03/15 04:52:54;;;;;;;39.30;24.90;;;;;;;3.54;82.68;101488.62;107586;1256;97749;-63
2024/03/15 04:55:23;;;;;;;35.50;23.40;;;;;;;3.56;82.78;101487.62;107580;1252;111838;-63
2024/03/15 04:57:51;;;;;;;37.90;24.80;;;;;;;3.54;82.25;101485.39;107550;1253;108912;-63
2024/03/15 05:00:20;;;;;;;40.90;24.50;;;;;;;3.55;82.60;101487.50;107544;1251;108419;-63
2024/03/15 05:02:51;;;;;;;46.40;27.80;;;;;;;3.56;82.40;101484.62;107529;1251;97953;-64
2024/03/15 05:05:21;;;;;;;37.00;24.50;;;;;;;3.59;82.73;101485.34;107572;1256;97840;-64
2024/03/15 05:07:50;;;;;;;34.50;23.40;;;;;;;3.63;82.59;101488.20;107590;1251;112897;-63
2024/03/15 05:10:19;;;;;;;35.60;23.40;;;;;;;3.66;82.47;101488.54;107505;1253;109698;-63
2024/03/15 05:12:50;;;;;;;37.20;23.50;;;;;;;3.70;82.49;101487.29;107551;1253;107673;-63
2024/03/15 05:15:18;;;;;;;36.20;24.00;;;;;;;3.73;82.13;101489.12;107545;1253;97903;-64
2024/03/15 05:17:47;;;;;;;36.10;23.70;;;;;;;3.73;81.99;101486.28;107589;1253;97711;-63
2024/03/15 05:20:16;;;;;;;38.80;23.50;;;;;;;3.73;81.75;101490.90;107603;1253;111079;-64
2024/03/15 05:22:44;;;;;;;39.40;25.70;;;;;;;3.71;81.72;101491.89;107565;1254;107494;-62
2024/03/15 05:25:14;;;;;;;38.90;24.40;;;;;;;3.68;81.68;101490.98;107541;1252;108436;-63
2024/03/15 05:27:45;;;;;;;39.10;24.30;;;;;;;3.67;81.77;101488.17;107621;1251;97835;-63
2024/03/15 05:30:17;;;;;;;39.90;24.20;;;;;;;3.68;81.66;101487.04;107585;1256;97873;-63
2024/03/15 05:32:47;;;;;;;41.80;23.80;;;;;;;3.70;81.69;101487.66;107542;1255;111552;-65
2024/03/15 05:35:20;;;;;;;36.30;23.10;;;;;;;3.66;81.50;101488.91;107554;1255;107916;-64
2024/03/15 05:37:49;;;;;;;38.90;24.30;;;;;;;3.68;81.46;101489.20;107516;1252;108307;-67
2024/03/15 05:40:18;;;;;;;39.90;24.60;;;;;;;3.66;81.33;101493.52;107498;1253;97839;-63
2024/03/15 05:42:48;;;;;;;42.20;24.30;;;;;;;3.63;81.49;101497.60;107578;1252;97841;-64
2024/03/15 05:45:22;;;;;;;47.20;26.50;;;;;;;3.67;81.63;101497.93;107580;1254;110886;-63
2024/03/15 05:47:51;;;;;;;43.00;26.10;;;;;;;3.72;81.78;101501.59;107623;1251;106945;-65
2024/03/15 05:50:20;;;;;;;36.50;24.10;;;;;;;3.81;82.04;101504.88;107553;1251;108249;-65
2024/03/15 05:52:49;;;;;;;43.30;25.70;;;;;;;3.86;81.84;101506.05;107600;1254;97947;-64
2024/03/15 05:55:18;;;;;;;45.80;23.30;;;;;;;3.86;81.38;101503.59;107531;1255;98435;-64
2024/03/15 05:57:47;;;;;;;39.90;24.60;;;;;;;3.91;81.48;101503.70;107515;1253;111269;-64
2024/03/15 06:00:19;;;;;;;45.00;25.90;;;;;;;3.93;81.13;101505.56;107502;1253;108492;-65
2024/03/15 06:02:50;;;;;;;40.30;25.00;;;;;;;4.00;81.33;101505.58;107576;1251;108616;-64
2024/03/15 06:05:19;;;;;;;39.90;25.60;;;;;;;4.10;81.45;101505.25;107436;1252;97853;-66
2024/03/15 06:07:48;;;;;;;38.60;24.40;;;;;;;4.21;81.51;101511.81;107509;1252;98412;-65
2024/03/15 06:10:20;;;;;;;45.40;27.30;;;;;;;4.34;81.11;101505.11;107463;1256;111954;-64
2024/03/15 06:12:50;;;;;;;48.10;24.90;;;;;;;4.50;81.05;101503.09;107455;1253;108554;-65
2024/03/15 06:15:21;;;;;;;40.50;24.80;;;;;;;4.62;80.30;101507.61;107426;1253;107769;-63
2024/03/15 06:17:50;;;;;;;40.10;24.70;;;;;;;4.75;80.68;101506.23;107458;1252;97793;-64
2024/03/15 06:20:18;;;;;;;40.80;25.60;;;;;;;4.91;80.23;101505.08;107484;1254;98468;-64
2024/03/15 06:22:47;;;;;;;41.10;25.80;;;;;;;5.02;79.59;101503.39;107494;1252;111484;-64
2024/03/15 06:25:16;;;;;;;43.20;26.30;;;;;;;5.12;79.26;101502.32;107494;1251;107859;-64
2024/03/15 06:27:45;;;;;;;37.70;23.70;;;;;;;5.18;78.30;101502.17;107476;1253;107891;-63
2024/03/15 06:30:15;;;;;;;44.70;24.80;;;;;;;5.21;77.58;101506.66;107498;1255;97904;-65
2024/03/15 06:32:44;;;;;;;37.60;24.30;;;;;;;5.30;78.10;101508.30;107584;1256;97908;-63
2024/03/15 06:35:19;;;;;;;37.00;24.00;;;;;;;5.44;77.75;101504.86;107516;1253;111851;-64
2024/03/15 06:37:53;;;;;;;39.40;25.10;;;;;;;5.56;77.21;101510.46;107513;1251;108518;-64
2024/03/15 06:40:45;;;;;;;42.10;26.40;;;;;;;5.67;76.71;101506.06;107440;1253;107960;-64
2024/03/15 06:43:14;;;;;;;46.00;26.10;;;;;;;5.81;76.63;101504.08;107459;1251;97838;-66
2024/03/15 06:48:18;;;;;;;38.80;25.00;;;;;;;6.13;75.11;101509.94;107339;1255;112386;-64
2024/03/15 06:51:00;;;;;;;43.20;25.50;;;;;;;6.18;74.86;101504.48;107434;1252;107495;-64
2024/03/15 06:53:29;;;;;;;49.60;25.90;;;;;;;6.24;74.86;101506.93;107438;1253;108265;-64
2024/03/15 06:55:58;;;;;;;43.10;26.50;;;;;;;6.27;74.27;101508.23;107564;1255;97857;-65
2024/03/15 06:58:27;;;;;;;44.80;26.30;;;;;;;6.28;73.49;101510.70;107432;1252;97705;-64
2024/03/15 07:00:58;;;;;;;42.50;26.40;;;;;;;6.24;73.44;101512.67;107442;1255;112133;-64
2024/03/15 07:03:27;;;;;;;52.90;27.20;;;;;;;6.19;73.35;101513.17;107633;1252;107432;-65
2024/03/15 07:05:57;;;;;;;46.90;26.30;;;;;;;6.09;73.32;101512.98;107467;1253;107226;-66
2024/03/15 07:08:30;;;;;;;46.70;28.20;;;;;;;6.02;73.36;101516.09;107538;1254;97726;-66
2024/03/15 07:10:58;;;;;;;54.70;27.90;;;;;;;5.93;73.20;101509.26;107549;1256;97999;-65
2024/03/15 07:13:27;;;;;;;46.00;27.10;;;;;;;5.86;73.06;101515.18;107491;1256;112204;-64
2024/03/15 07:15:55;;;;;;;42.60;26.50;;;;;;;5.78;72.94;101516.70;107455;1255;108702;-64
2024/03/15 07:18:24;;;;;;;55.90;29.00;;;;;;;5.77;73.13;101519.23;107528;1255;108382;-63
2024/03/15 07:20:56;;;;;;;46.40;26.40;;;;;;;5.80;73.33;101516.05;107500;1251;97881;-64
2024/03/15 07:23:26;;;;;;;44.70;27.60;;;;;;;5.86;72.86;101517.27;107546;1254;97825;-65
2024/03/15 07:25:55;;;;;;;49.30;28.00;;;;;;;5.91;72.82;101520.23;107603;1254;111269;-65
2024/03/15 07:28:23;;;;;;;51.10;27.90;;;;;;;5.97;72.85;101522.36;107622;1254;107949;-64
2024/03/15 07:30:55;;;;;;;49.00;27.20;;;;;;;6.05;72.69;101521.61;107531;1253;107250;-64
2024/03/15 07:33:24;;;;;;;50.00;27.00;;;;;;;6.10;72.68;101522.36;107541;1253;97907;-64
2024/03/15 07:36:01;;;;;;;47.50;27.40;;;;;;;6.15;72.70;101525.83;107605;1251;97838;-64
2024/03/15 07:38:30;;;;;;;59.40;28.00;;;;;;;6.22;72.21;101524.17;107624;1253;112596;-64
2024/03/15 07:40:58;;;;;;;50.00;25.30;;;;;;;6.28;72.32;101524.75;107598;1253;108488;-66
2024/03/15 07:44:11;;;;;;;46.50;26.30;;;;;;;6.29;71.79;101524.85;104322;1294;635901;-65
2024/03/15 07:46:41;;;;;;;54.20;25.00;;;;;;;6.27;71.97;101527.11;106718;1267;95137;-65
2024/03/15 07:49:10;;;;;;;42.20;22.90;;;;;;;6.32;71.95;101526.64;106663;1268;95688;-65
2024/03/15 07:51:38;;;;;;;41.80;24.90;;;;;;;6.39;71.78;101524.25;106619;1266;108436;-64
2024/03/15 07:54:06;;;;;;;42.70;23.30;;;;;;;6.49;71.53;101527.05;106653;1267;108113;-65
2024/03/15 07:56:35;;;;;;;35.80;23.30;;;;;;;6.60;71.01;101523.73;105887;1264;1097372;-62
2024/03/15 07:59:03;;;;;;;38.00;23.10;;;;;;;6.71;70.66;101522.54;106715;1267;95118;-64
2024/03/15 08:01:32;;;;;;;40.60;24.20;;;;;;;6.83;70.24;101518.49;106754;1262;95028;-64
2024/03/15 08:04:00;;;;;;;39.20;24.10;;;;;;;6.91;69.96;101520.28;106727;1264;108584;-63
2024/03/15 08:06:29;;;;;;;54.80;25.40;;;;;;;7.01;69.85;101520.60;106718;1263;108410;-64
2024/03/15 08:08:57;;;;;;;38.70;24.70;;;;;;;7.14;69.72;101522.11;106677;1264;108311;-62
2024/03/15 08:11:26;;;;;;;50.00;24.50;;;;;;;7.21;69.58;101522.18;106802;1267;96479;-64
2024/03/15 08:13:54;;;;;;;37.50;23.30;;;;;;;7.26;69.34;101517.45;106771;1264;98179;-64
2024/03/15 08:16:33;;;;;;;37.00;22.10;;;;;;;7.26;69.08;101517.25;106723;1264;110871;-66
2024/03/15 08:19:10;;;;;;;47.10;23.40;;;;;;;7.25;68.35;101514.64;106757;1264;107784;-64
2024/03/15 08:21:39;;;;;;;46.20;24.30;;;;;;;7.29;67.94;101516.17;106860;1264;108290;-65
2024/03/15 08:24:12;;;;;;;42.30;23.90;;;;;;;7.31;68.01;101513.89;106810;1263;96379;-65
2024/03/15 08:26:41;;;;;;;49.40;24.20;;;;;;;7.35;67.56;101516.52;107359;1254;96474;-64
2024/03/15 08:29:10;;;;;;;42.90;24.40;;;;;;;7.36;67.66;101516.06;107375;1258;111170;-62
2024/03/15 08:31:39;;;;;;;41.70;24.30;;;;;;;7.42;66.79;101511.79;107362;1257;107903;-63
2024/03/15 08:34:08;;;;;;;48.60;26.00;;;;;;;7.48;66.91;101507.29;107420;1254;107821;-64
2024/03/15 08:36:36;;;;;;;45.40;24.70;;;;;;;7.60;66.19;101506.34;107237;1257;96471;-64
2024/03/15 08:39:11;;;;;;;49.80;24.60;;;;;;;7.72;66.61;101505.25;107267;1257;96497;-64
2024/03/15 08:41:42;;;;;;;50.30;24.40;;;;;;;7.79;66.21;101506.06;107345;1254;109668;-63
2024/03/15 08:44:13;;;;;;;39.00;22.70;;;;;;;7.80;64.57;101505.95;107385;1254;108348;-65
2024/03/15 08:46:41;;;;;;;48.70;23.60;;;;;;;7.68;63.87;101506.04;107356;1255;107144;-65
2024/03/15 08:49:11;;;;;;;45.00;24.00;;;;;;;7.65;65.00;101514.80;107330;1255;96484;-64
2024/03/15 08:51:39;;;;;;;58.00;26.10;;;;;;;7.64;65.46;101510.40;107622;1251;96372;-67
2024/03/15 08:54:11;;;;;;;55.30;26.60;;;;;;;7.61;65.63;101512.91;107587;1251;110175;-64
2024/03/15 08:56:40;;;;;;;49.10;24.30;;;;;;;7.57;65.21;101511.38;107552;1254;107207;-63
2024/03/15 08:59:09;;;;;;;50.00;23.60;;;;;;;7.51;64.90;101508.91;107567;1255;107891;-64
2024/03/15 09:01:37;;;;;;;47.60;25.10;;;;;;;7.43;64.67;101507.83;107533;1251;96638;-64
2024/03/15 09:04:07;;;;;;;43.70;24.10;;;;;;;7.34;65.03;101511.03;107595;1251;96481;-64
2024/03/15 09:06:36;;;;;;;47.80;24.00;;;;;;;7.29;65.04;101509.57;107604;1251;109948;-65
2024/03/15 09:09:13;;;;;;;47.60;26.40;;;;;;;7.25;65.28;101511.05;107650;1251;107703;-64
2024/03/15 09:11:43;;;;;;;50.70;25.80;;;;;;;7.24;65.89;101512.21;107664;1251;108594;-64
2024/03/15 09:14:17;;;;;;;50.50;25.40;;;;;;;7.24;65.70;101511.18;107597;1251;96497;-65
2024/03/15 09:16:50;;;;;;;42.70;24.00;;;;;;;7.17;65.80;101512.05;107585;1253;96379;-65
2024/03/15 09:19:21;;;;;;;47.40;23.80;;;;;;;7.19;65.92;101512.16;107593;1257;109934;-64
2024/03/15 09:21:49;;;;;;;41.10;22.50;;;;;;;7.22;65.22;101508.94;107653;1257;108943;-64
2024/03/15 09:24:19;;;;;;;43.90;21.50;;;;;;;7.27;65.20;101513.59;107607;1251;107730;-64
2024/03/15 09:26:47;;;;;;;41.90;22.10;;;;;;;7.31;63.86;101510.37;107646;1251;96446;-65
2024/03/15 09:29:17;;;;;;;45.70;23.10;;;;;;;7.28;64.34;101512.30;107605;1251;96497;-64
2024/03/15 09:31:51;;;;;;;42.20;21.50;;;;;;;7.27;64.38;101507.54;107524;1251;110456;-65
2024/03/15 09:34:43;;;;;;;38.00;20.80;;;;;;;7.28;64.90;101513.20;107586;1251;108666;-65
2024/03/15 09:37:14;;;;;;;37.50;21.80;;;;;;;7.28;65.13;101513.17;107636;1251;108524;-62
2024/03/15 09:39:43;;;;;;;36.60;21.90;;;;;;;7.26;65.06;101511.01;107640;1251;96482;-64
2024/03/15 09:42:17;;;;;;;53.80;24.20;;;;;;;7.26;65.06;101513.33;107546;1254;97124;-63
2024/03/15 09:44:49;;;;;;;36.10;24.00;;;;;;;7.23;65.02;101509.94;107622;1254;110872;-63
2024/03/15 09:47:17;;;;;;;48.90;24.60;;;;;;;7.19;64.89;101510.16;107567;1254;106164;-62
2024/03/15 09:49:48;;;;;;;44.40;25.10;;;;;;;7.16;65.10;101521.47;107407;1253;107702;-63
2024/03/15 09:52:18;;;;;;;48.10;23.40;;;;;;;7.16;65.56;101519.84;107464;1254;96482;-66
2024/03/15 09:54:47;;;;;;;46.80;23.50;;;;;;;7.22;65.95;101513.04;107534;1254;96549;-65
2024/03/15 09:57:18;;;;;;;47.90;22.70;;;;;;;7.30;65.80;101511.44;107436;1254;110105;-66
2024/03/15 09:59:46;;;;;;;43.50;21.60;;;;;;;7.38;65.75;101512.59;107567;1253;108931;-65
2024/03/15 10:02:23;;;;;;;45.50;22.10;;;;;;;7.43;65.94;101517.27;107407;1254;106604;-65
2024/03/15 10:04:53;;;;;;;40.10;21.20;;;;;;;7.51;65.75;101516.94;107556;1252;96479;-65
2024/03/15 10:07:22;;;;;;;30.80;19.10;;;;;;;7.62;65.91;101514.08;107493;1254;96500;-66
2024/03/15 10:09:54;;;;;;;40.00;19.60;;;;;;;7.69;65.70;101514.16;107558;1253;110949;-65
2024/03/15 10:12:22;;;;;;;38.40;20.60;;;;;;;7.73;65.22;101512.48;107625;1254;108755;-65
2024/03/15 10:14:50;;;;;;;39.00;20.00;;;;;;;7.73;65.01;101511.08;107339;1257;108204;-65
2024/03/15 10:17:19;;;;;;;40.30;23.30;;;;;;;7.74;65.03;101513.34;107591;1254;96556;-63
2024/03/15 10:19:47;;;;;;;46.30;21.10;;;;;;;7.75;64.85;101511.67;107581;1254;96997;-64
2024/03/15 10:22:16;;;;;;;37.10;23.50;;;;;;;7.77;64.30;101513.67;107480;1253;110056;-62
2024/03/15 10:24:44;;;;;;;45.00;23.40;;;;;;;7.74;64.43;101517.63;107576;1254;108320;-62
2024/03/15 10:27:12;;;;;;;39.40;23.30;;;;;;;7.72;64.85;101516.30;107529;1254;107188;-66
2024/03/15 10:29:41;;;;;;;37.30;21.40;;;;;;;7.72;64.84;101515.41;107553;1253;96503;-65
2024/03/15 10:32:11;;;;;;;45.70;23.40;;;;;;;7.71;63.66;101512.28;107574;1256;96376;-64
2024/03/15 14:02:17;;;;;;;42.60;24.60;;;;;;;7.51;67.74;101491.91;107370;1255;97863;-63
2024/03/15 14:04:46;;;;;;;49.50;27.80;;;;;;;7.54;67.89;101490.31;107441;1251;97732;-64
2024/03/15 14:07:16;;;;;;;44.30;25.90;;;;;;;7.59;67.87;101487.85;107463;1253;111782;-64
2024/03/15 14:09:44;;;;;;;50.00;26.30;;;;;;;7.60;67.58;101488.16;107472;1254;109805;-64
2024/03/15 14:12:13;;;;;;;55.90;27.50;;;;;;;7.59;67.41;101483.09;107552;1252;108266;-64
2024/03/15 14:14:41;;;;;;;44.90;27.00;;;;;;;7.55;67.80;101487.24;107441;1253;97832;-65
2024/03/15 14:17:09;;;;;;;45.90;26.40;;;;;;;7.57;68.01;101484.27;107385;1253;98388;-65
2024/03/15 14:19:37;;;;;;;39.10;26.00;;;;;;;7.59;67.84;101489.48;107495;1251;111865;-65
2024/03/15 14:22:06;;;;;;;46.90;28.30;;;;;;;7.61;67.80;101481.85;107477;1254;108774;-65
2024/03/15 14:24:34;;;;;;;68.80;27.70;;;;;;;7.62;67.87;101482.65;107333;1253;107912;-65
2024/03/15 14:27:03;;;;;;;50.20;30.10;;;;;;;7.63;67.90;101475.84;107462;1253;97704;-65
2024/03/15 14:29:31;;;;;;;53.10;27.90;;;;;;;7.67;68.11;101475.55;107539;1254;97867;-64
2024/03/15 14:32:00;;;;;;;45.90;28.00;;;;;;;7.73;68.06;101474.48;107372;1257;111849;-64
2024/03/15 14:34:28;;;;;;;49.90;27.60;;;;;;;7.75;67.78;101471.65;107500;1254;109370;-63
2024/03/15 14:36:57;;;;;;;45.80;26.40;;;;;;;7.75;67.62;101475.04;107437;1254;108327;-63
2024/03/15 14:39:26;;;;;;;47.00;27.60;;;;;;;7.76;67.73;101475.16;107572;1253;97933;-65
2024/03/15 14:41:54;;;;;;;43.90;26.40;;;;;;;7.80;67.71;101476.52;107479;1254;98392;-66
2024/03/15 14:44:23;;;;;;;50.50;27.30;;;;;;;7.82;67.64;101476.00;107475;1255;111666;-71
2024/03/15 14:46:54;;;;;;;44.90;27.50;;;;;;;7.84;67.87;101473.56;107526;1253;107556;-67